createdAt,value
2023-04-18T00:00:28.341Z,0.00
2023-04-18T00:01:28.254Z,0.00
2023-04-18T00:02:28.353Z,0.00
2023-04-18T00:03:28.486Z,0.00
2023-04-18T00:04:28.279Z,0.00
2023-04-18T00:05:29.253Z,0.00
2023-04-18T00:06:28.205Z,0.00
2023-04-18T00:07:28.184Z,0.00
2023-04-18T00:08:28.250Z,0.00
2023-04-18T00:09:29.039Z,0.00
2023-04-18T00:10:28.175Z,0.00
2023-04-18T00:11:28.145Z,0.00
2023-04-18T00:12:28.131Z,0.00
2023-04-18T00:13:28.100Z,0.00
2023-04-18T00:14:28.121Z,0.00
2023-04-18T00:15:28.381Z,0.00
2023-04-18T00:16:28.150Z,0.00
2023-04-18T00:17:29.005Z,0.00
2023-04-18T00:18:28.027Z,0.00
2023-04-18T00:19:28.217Z,0.00
2023-04-18T00:20:28.196Z,0.00
2023-04-18T00:21:28.093Z,0.00
2023-04-18T00:22:28.032Z,0.00
2023-04-18T00:23:28.395Z,0.00
2023-04-18T00:24:27.931Z,0.00
2023-04-18T00:25:28.006Z,0.00
2023-04-18T00:26:27.910Z,0.00
2023-04-18T00:27:27.934Z,0.00
2023-04-18T00:28:27.948Z,0.00
2023-04-18T00:29:27.851Z,0.00
2023-04-18T00:30:28.370Z,0.00
2023-04-18T00:31:27.929Z,0.00
2023-04-18T00:32:27.818Z,0.00
2023-04-18T00:33:27.837Z,0.00
2023-04-18T00:34:27.875Z,0.00
2023-04-18T00:35:27.789Z,0.00
2023-04-18T00:36:27.763Z,0.00
2023-04-18T00:37:27.759Z,0.00
2023-04-18T00:38:27.849Z,0.00
2023-04-18T00:39:27.734Z,0.00
2023-04-18T00:40:27.731Z,0.00
2023-04-18T00:41:27.775Z,0.00
2023-04-18T00:42:27.881Z,0.00
2023-04-18T00:43:27.710Z,0.00
2023-04-18T00:44:28.441Z,0.00
2023-04-18T00:45:27.629Z,0.00
2023-04-18T00:46:27.660Z,0.00
2023-04-18T00:47:27.677Z,0.00
2023-04-18T00:48:27.613Z,0.00
2023-04-18T00:49:28.541Z,0.00
2023-04-18T00:50:27.603Z,0.00
2023-04-18T00:51:28.565Z,0.00
2023-04-18T00:52:27.571Z,0.00
2023-04-18T00:53:28.340Z,0.00
2023-04-18T00:54:27.549Z,0.00
2023-04-18T00:55:28.421Z,0.00
2023-04-18T00:56:28.332Z,0.00
2023-04-18T00:57:27.600Z,0.00
2023-04-18T00:58:28.381Z,0.00
2023-04-18T00:59:28.280Z,0.00
2023-04-18T01:00:27.469Z,0.00
2023-04-18T01:01:27.544Z,0.00
2023-04-18T01:02:27.951Z,0.00
2023-04-18T01:03:27.591Z,0.00
2023-04-18T01:04:27.594Z,0.00
2023-04-18T01:05:27.534Z,0.00
2023-04-18T01:06:27.576Z,0.00
2023-04-18T01:07:27.342Z,0.00
2023-04-18T01:08:27.590Z,0.00
2023-04-18T01:09:27.610Z,0.00
2023-04-18T01:10:27.358Z,0.00
2023-04-18T01:11:27.404Z,0.00
2023-04-18T01:12:27.526Z,0.00
2023-04-18T01:13:27.285Z,0.00
2023-04-18T01:14:27.342Z,0.00
2023-04-18T01:15:27.582Z,0.00
2023-04-18T01:16:27.422Z,0.00
2023-04-18T01:17:27.396Z,0.00
2023-04-18T01:18:27.253Z,0.00
2023-04-18T01:19:27.551Z,0.00
2023-04-18T01:20:27.372Z,0.00
2023-04-18T01:21:27.184Z,0.00
2023-04-18T01:22:27.126Z,0.00
2023-04-18T01:23:27.593Z,0.00
2023-04-18T01:24:27.201Z,0.00
2023-04-18T01:25:27.203Z,0.00
2023-04-18T01:26:27.230Z,0.00
2023-04-18T01:27:27.967Z,0.00
2023-04-18T01:28:27.077Z,0.00
2023-04-18T01:29:27.104Z,0.00
2023-04-18T01:30:27.851Z,0.00
2023-04-18T01:31:27.888Z,0.00
2023-04-18T01:32:27.093Z,0.00
2023-04-18T01:33:27.081Z,0.00
2023-04-18T01:34:27.074Z,0.00
2023-04-18T01:35:27.024Z,0.00
2023-04-18T01:36:26.941Z,0.00
2023-04-18T01:37:26.960Z,0.00
2023-04-18T01:38:27.058Z,0.00
2023-04-18T01:39:26.959Z,0.00
2023-04-18T01:40:26.866Z,0.00
2023-04-18T01:41:27.136Z,0.00
2023-04-18T01:42:26.869Z,0.00
2023-04-18T01:43:26.972Z,0.00
2023-04-18T01:44:26.860Z,0.00
2023-04-18T01:45:26.842Z,0.00
2023-04-18T01:46:26.865Z,0.00
2023-04-18T01:47:27.812Z,0.00
2023-04-18T01:48:26.792Z,0.00
2023-04-18T01:49:26.721Z,0.00
2023-04-18T01:50:26.788Z,0.00
2023-04-18T01:51:26.780Z,0.00
2023-04-18T01:52:26.696Z,0.00
2023-04-18T01:53:26.696Z,0.00
2023-04-18T01:54:26.862Z,0.00
2023-04-18T01:55:26.641Z,0.00
2023-04-18T01:56:26.743Z,0.00
2023-04-18T01:57:26.669Z,0.00
2023-04-18T01:58:26.631Z,0.00
2023-04-18T01:59:26.746Z,0.00
2023-04-18T02:00:26.587Z,0.00
2023-04-18T02:01:26.858Z,0.00
2023-04-18T02:02:26.804Z,0.00
2023-04-18T02:03:26.721Z,0.00
2023-04-18T02:04:26.690Z,0.00
2023-04-18T02:05:26.582Z,0.00
2023-04-18T02:06:26.561Z,0.00
2023-04-18T02:07:26.906Z,0.00
2023-04-18T02:08:26.518Z,0.00
2023-04-18T02:09:26.521Z,0.00
2023-04-18T02:10:26.441Z,0.00
2023-04-18T02:11:26.525Z,0.00
2023-04-18T02:12:26.452Z,0.00
2023-04-18T02:13:26.473Z,0.00
2023-04-18T02:14:26.473Z,0.00
2023-04-18T02:15:26.447Z,0.00
2023-04-18T02:16:26.541Z,0.00
2023-04-18T02:17:26.420Z,0.00
2023-04-18T02:18:26.388Z,0.00
2023-04-18T02:19:26.330Z,0.00
2023-04-18T02:20:26.377Z,0.00
2023-04-18T02:21:26.309Z,0.00
2023-04-18T02:22:26.311Z,0.00
2023-04-18T02:23:26.301Z,0.00
2023-04-18T02:24:26.319Z,0.00
2023-04-18T02:25:26.299Z,0.00
2023-04-18T02:26:26.366Z,0.00
2023-04-18T02:27:26.371Z,0.00
2023-04-18T02:28:26.249Z,0.00
2023-04-18T02:29:26.221Z,0.00
2023-04-18T02:30:26.229Z,0.00
2023-04-18T02:31:26.438Z,0.00
2023-04-18T02:32:26.387Z,0.00
2023-04-18T02:33:26.183Z,0.00
2023-04-18T02:34:26.262Z,0.00
2023-04-18T02:35:26.157Z,0.00
2023-04-18T02:36:26.321Z,0.00
2023-04-18T02:37:26.280Z,0.00
2023-04-18T02:38:26.497Z,0.00
2023-04-18T02:39:26.146Z,0.00
2023-04-18T02:40:26.243Z,0.00
2023-04-18T02:41:26.123Z,0.00
2023-04-18T02:42:26.073Z,0.00
2023-04-18T02:43:26.363Z,0.00
2023-04-18T02:44:26.109Z,0.00
2023-04-18T02:45:26.054Z,0.00
2023-04-18T02:46:26.159Z,0.00
2023-04-18T02:47:26.520Z,0.00
2023-04-18T02:48:26.915Z,0.00
2023-04-18T02:49:25.993Z,0.00
2023-04-18T02:50:25.938Z,0.00
2023-04-18T02:51:26.755Z,0.00
2023-04-18T02:52:25.862Z,0.00
2023-04-18T02:53:25.894Z,0.00
2023-04-18T02:54:25.960Z,0.00
2023-04-18T02:55:25.873Z,0.00
2023-04-18T02:56:25.839Z,0.00
2023-04-18T02:57:25.792Z,0.00
2023-04-18T02:58:25.812Z,0.00
2023-04-18T02:59:25.824Z,0.00
2023-04-18T03:00:25.822Z,0.00
2023-04-18T03:01:25.978Z,0.00
2023-04-18T03:02:25.875Z,0.00
2023-04-18T03:03:25.906Z,0.00
2023-04-18T03:04:25.752Z,0.00
2023-04-18T03:05:25.756Z,0.00
2023-04-18T03:06:25.865Z,0.00
2023-04-18T03:07:25.724Z,0.00
2023-04-18T03:08:25.743Z,0.00
2023-04-18T03:09:25.771Z,0.00
2023-04-18T03:10:25.753Z,0.00
2023-04-18T03:11:25.751Z,0.00
2023-04-18T03:12:26.784Z,0.00
2023-04-18T03:13:25.613Z,0.00
2023-04-18T03:14:25.607Z,0.00
2023-04-18T03:15:25.587Z,0.00
2023-04-18T03:16:25.658Z,0.00
2023-04-18T03:17:25.684Z,0.00
2023-04-18T03:18:25.873Z,0.00
2023-04-18T03:19:25.856Z,0.00
2023-04-18T03:20:25.523Z,0.00
2023-04-18T03:21:25.580Z,0.00
2023-04-18T03:22:25.488Z,0.00
2023-04-18T03:23:25.717Z,0.00
2023-04-18T03:24:25.429Z,0.00
2023-04-18T03:25:25.414Z,0.00
2023-04-18T03:26:26.240Z,0.00
2023-04-18T03:27:25.740Z,0.00
2023-04-18T03:28:25.389Z,0.00
2023-04-18T03:29:25.447Z,0.00
2023-04-18T03:30:25.695Z,0.00
2023-04-18T03:31:25.354Z,0.00
2023-04-18T03:32:25.455Z,0.00
2023-04-18T03:33:25.331Z,0.00
2023-04-18T03:34:25.320Z,0.00
2023-04-18T03:35:25.288Z,4.00
2023-04-18T03:36:25.361Z,4.00
2023-04-18T03:37:25.366Z,0.00
2023-04-18T03:38:25.290Z,0.00
2023-04-18T03:39:25.263Z,4.00
2023-04-18T03:40:25.205Z,4.00
2023-04-18T03:41:25.249Z,4.00
2023-04-18T03:42:25.185Z,8.00
2023-04-18T03:43:25.180Z,4.00
2023-04-18T03:44:26.696Z,4.00
2023-04-18T03:45:25.193Z,4.00
2023-04-18T03:46:25.403Z,8.00
2023-04-18T03:47:25.621Z,8.00
2023-04-18T03:48:25.462Z,12.00
2023-04-18T03:49:25.406Z,12.00
2023-04-18T03:50:25.038Z,16.00
2023-04-18T03:51:25.763Z,20.00
2023-04-18T03:52:25.092Z,20.00
2023-04-18T03:53:25.455Z,28.00
2023-04-18T03:54:25.073Z,28.00
2023-04-18T03:55:25.034Z,36.00
2023-04-18T03:56:25.032Z,40.00
2023-04-18T03:57:24.969Z,44.00
2023-04-18T03:58:24.934Z,56.00
2023-04-18T03:59:24.968Z,60.00
2023-04-18T04:00:25.114Z,72.00
2023-04-18T04:01:24.899Z,80.00
2023-04-18T04:02:25.016Z,92.00
2023-04-18T04:03:25.014Z,104.00
2023-04-18T04:04:24.870Z,116.00
2023-04-18T04:05:24.865Z,132.00
2023-04-18T04:06:24.833Z,148.00
2023-04-18T04:07:24.818Z,172.00
2023-04-18T04:08:27.023Z,188.00
2023-04-18T04:09:24.785Z,208.00
2023-04-18T04:10:24.711Z,232.00
2023-04-18T04:11:24.804Z,260.00
2023-04-18T04:12:24.782Z,284.00
2023-04-18T04:13:24.732Z,312.00
2023-04-18T04:14:24.790Z,340.00
2023-04-18T04:15:24.796Z,368.00
2023-04-18T04:16:24.704Z,400.00
2023-04-18T04:17:24.723Z,436.00
2023-04-18T04:18:25.563Z,476.00
2023-04-18T04:19:24.643Z,516.00
2023-04-18T04:20:24.718Z,556.00
2023-04-18T04:21:24.628Z,596.00
2023-04-18T04:22:24.573Z,640.00
2023-04-18T04:23:24.597Z,680.00
2023-04-18T04:24:24.596Z,724.00
2023-04-18T04:25:24.626Z,772.00
2023-04-18T04:26:24.570Z,820.00
2023-04-18T04:27:24.489Z,864.00
2023-04-18T04:28:24.549Z,916.00
2023-04-18T04:29:24.530Z,964.00
2023-04-18T04:30:25.051Z,1016.00
2023-04-18T04:31:24.509Z,1068.00
2023-04-18T04:32:25.396Z,1124.00
2023-04-18T04:33:24.441Z,1172.00
2023-04-18T04:34:24.553Z,1232.00
2023-04-18T04:35:24.552Z,1288.00
2023-04-18T04:36:24.401Z,1344.00
2023-04-18T04:37:24.557Z,1404.00
2023-04-18T04:38:24.386Z,1460.00
2023-04-18T04:39:24.369Z,1516.00
2023-04-18T04:40:24.331Z,1572.00
2023-04-18T04:41:24.315Z,1628.00
2023-04-18T04:42:24.308Z,1680.00
2023-04-18T04:43:24.327Z,1744.00
2023-04-18T04:44:24.303Z,1800.00
2023-04-18T04:45:24.322Z,1856.00
2023-04-18T04:46:25.134Z,1916.00
2023-04-18T04:47:24.402Z,1972.00
2023-04-18T04:48:24.458Z,2024.00
2023-04-18T04:49:24.215Z,2084.00
2023-04-18T04:50:24.203Z,2140.00
2023-04-18T04:51:24.201Z,2196.00
2023-04-18T04:52:24.145Z,2248.00
2023-04-18T04:53:25.013Z,2304.00
2023-04-18T04:54:25.024Z,2356.00
2023-04-18T04:55:24.101Z,2412.00
2023-04-18T04:56:24.113Z,2464.00
2023-04-18T04:57:24.125Z,2520.00
2023-04-18T04:58:24.149Z,2568.00
2023-04-18T04:59:25.071Z,2616.00
2023-04-18T05:00:24.900Z,2672.00
2023-04-18T05:01:24.216Z,2720.00
2023-04-18T05:02:24.223Z,2776.00
2023-04-18T05:03:24.269Z,2812.00
2023-04-18T05:04:24.029Z,2856.00
2023-04-18T05:05:23.966Z,2916.00
2023-04-18T05:06:23.989Z,2948.00
2023-04-18T05:07:23.937Z,2984.00
2023-04-18T05:08:24.041Z,3032.00
2023-04-18T05:09:23.888Z,3072.00
2023-04-18T05:10:23.989Z,3112.00
2023-04-18T05:11:24.824Z,3160.00
2023-04-18T05:12:23.910Z,3196.00
2023-04-18T05:13:23.862Z,3240.00
2023-04-18T05:14:23.938Z,3276.00
2023-04-18T05:15:23.883Z,3304.00
2023-04-18T05:16:23.907Z,3356.00
2023-04-18T05:17:24.881Z,3384.00
2023-04-18T05:18:23.802Z,3440.00
2023-04-18T05:19:23.764Z,3480.00
2023-04-18T05:20:23.744Z,3552.00
2023-04-18T05:21:23.838Z,3592.00
2023-04-18T05:22:23.695Z,3616.00
2023-04-18T05:23:23.904Z,3672.00
2023-04-18T05:24:23.798Z,3728.00
2023-04-18T05:25:23.738Z,3788.00
2023-04-18T05:26:23.713Z,3836.00
2023-04-18T05:27:23.781Z,3944.00
2023-04-18T05:28:23.638Z,4052.00
2023-04-18T05:29:23.930Z,4164.00
2023-04-18T05:30:23.947Z,4228.00
2023-04-18T05:31:23.959Z,4300.00
2023-04-18T05:32:23.674Z,4232.00
2023-04-18T05:33:23.652Z,4244.00
2023-04-18T05:34:23.660Z,4268.00
2023-04-18T05:35:23.616Z,4352.00
2023-04-18T05:36:23.998Z,4448.00
2023-04-18T05:37:23.568Z,4528.00
2023-04-18T05:38:23.495Z,4536.00
2023-04-18T05:39:23.761Z,4644.00
2023-04-18T05:40:24.433Z,4688.00
2023-04-18T05:41:23.482Z,4744.00
2023-04-18T05:42:23.469Z,4860.00
2023-04-18T05:43:23.491Z,4972.00
2023-04-18T05:44:23.437Z,5152.00
2023-04-18T05:45:23.449Z,5316.00
2023-04-18T05:46:23.423Z,5380.00
2023-04-18T05:47:23.588Z,5440.00
2023-04-18T05:48:23.438Z,5456.00
2023-04-18T05:49:23.415Z,4380.00
2023-04-18T05:50:23.371Z,4172.00
2023-04-18T05:51:23.297Z,4164.00
2023-04-18T05:52:23.383Z,4488.00
2023-04-18T05:53:24.190Z,5828.00
2023-04-18T05:54:23.308Z,7404.00
2023-04-18T05:55:23.369Z,7768.00
2023-04-18T05:56:23.318Z,7296.00
2023-04-18T05:57:23.221Z,6832.00
2023-04-18T05:58:23.291Z,5876.00
2023-04-18T05:59:23.424Z,6892.00
2023-04-18T06:00:23.454Z,7396.00
2023-04-18T06:01:23.219Z,7556.00
2023-04-18T06:02:23.353Z,6996.00
2023-04-18T06:03:23.455Z,6536.00
2023-04-18T06:04:24.316Z,6384.00
2023-04-18T06:05:24.252Z,6400.00
2023-04-18T06:06:23.900Z,6368.00
2023-04-18T06:07:24.055Z,6332.00
2023-04-18T06:08:23.086Z,6404.00
2023-04-18T06:09:23.122Z,6416.00
2023-04-18T06:10:23.104Z,6524.00
2023-04-18T06:11:23.089Z,6512.00
2023-04-18T06:12:23.057Z,6524.00
2023-04-18T06:13:23.055Z,6540.00
2023-04-18T06:14:23.891Z,6500.00
2023-04-18T06:15:23.076Z,6492.00
2023-04-18T06:16:23.018Z,6512.00
2023-04-18T06:17:23.053Z,6572.00
2023-04-18T06:18:23.792Z,6688.00
2023-04-18T06:19:23.019Z,6712.00
2023-04-18T06:20:22.911Z,6780.00
2023-04-18T06:21:23.120Z,6840.00
2023-04-18T06:22:23.013Z,6872.00
2023-04-18T06:23:23.800Z,7028.00
2023-04-18T06:24:23.707Z,7212.00
2023-04-18T06:25:22.861Z,5848.00
2023-04-18T06:26:23.094Z,5532.00
2023-04-18T06:27:31.187Z,5576.00
2023-04-18T06:28:23.815Z,6092.00
2023-04-18T06:29:22.805Z,6948.00
2023-04-18T06:30:22.903Z,7980.00
2023-04-18T06:31:23.597Z,9068.00
2023-04-18T06:32:22.875Z,10356.00
2023-04-18T06:33:22.822Z,11460.00
2023-04-18T06:34:22.776Z,11952.00
2023-04-18T06:35:24.549Z,12432.00
2023-04-18T06:36:22.797Z,12780.00
2023-04-18T06:37:23.490Z,12944.00
2023-04-18T06:38:22.673Z,13336.00
2023-04-18T06:39:23.581Z,13520.00
2023-04-18T06:40:22.638Z,12964.00
2023-04-18T06:41:22.689Z,13312.00
2023-04-18T06:42:22.911Z,13544.00
2023-04-18T06:43:22.815Z,13616.00
2023-04-18T06:44:22.717Z,13740.00
2023-04-18T06:45:22.592Z,14080.00
2023-04-18T06:46:22.771Z,14628.00
2023-04-18T06:47:23.352Z,14488.00
2023-04-18T06:48:22.522Z,14164.00
2023-04-18T06:49:26.500Z,14528.00
2023-04-18T06:50:22.479Z,15012.00
2023-04-18T06:51:23.494Z,14512.00
2023-04-18T06:52:23.366Z,14472.00
2023-04-18T06:53:22.517Z,14428.00
2023-04-18T06:54:22.501Z,14696.00
2023-04-18T06:55:23.424Z,15196.00
2023-04-18T06:56:22.447Z,15560.00
2023-04-18T06:57:22.445Z,15604.00
2023-04-18T06:58:23.290Z,15400.00
2023-04-18T06:59:22.557Z,15500.00
2023-04-18T07:00:23.452Z,15488.00
2023-04-18T07:01:23.225Z,15744.00
2023-04-18T07:02:22.608Z,16012.00
2023-04-18T07:03:22.566Z,16184.00
2023-04-18T07:04:22.539Z,16468.00
2023-04-18T07:05:22.483Z,16928.00
2023-04-18T07:06:22.393Z,17088.00
2023-04-18T07:07:22.293Z,17504.00
2023-04-18T07:08:22.257Z,17728.00
2023-04-18T07:09:22.238Z,17536.00
2023-04-18T07:10:22.340Z,17824.00
2023-04-18T07:11:22.315Z,18272.00
2023-04-18T07:12:22.970Z,19008.00
2023-04-18T07:13:22.212Z,19488.00
2023-04-18T07:14:22.156Z,19264.00
2023-04-18T07:15:22.179Z,18944.00
2023-04-18T07:16:22.356Z,18720.00
2023-04-18T07:17:22.159Z,18976.00
2023-04-18T07:18:34.185Z,19776.00
2023-04-18T07:19:24.055Z,20320.00
2023-04-18T07:20:22.184Z,20288.00
2023-04-18T07:21:22.174Z,20544.00
2023-04-18T07:22:22.150Z,20864.00
2023-04-18T07:23:21.986Z,20896.00
2023-04-18T07:24:22.156Z,20640.00
2023-04-18T07:25:22.013Z,20960.00
2023-04-18T07:26:22.101Z,21696.00
2023-04-18T07:27:22.004Z,21952.00
2023-04-18T07:28:22.121Z,21248.00
2023-04-18T07:29:21.940Z,20800.00
2023-04-18T07:30:22.171Z,21536.00
2023-04-18T07:31:22.157Z,22624.00
2023-04-18T07:32:21.911Z,22880.00
2023-04-18T07:33:21.859Z,23264.00
2023-04-18T07:34:21.844Z,24352.00
2023-04-18T07:35:21.861Z,24864.00
2023-04-18T07:36:21.813Z,26464.00
2023-04-18T07:37:21.812Z,26752.00
2023-04-18T07:38:21.808Z,25408.00
2023-04-18T07:39:21.794Z,24896.00
2023-04-18T07:40:21.829Z,25568.00
2023-04-18T07:41:21.728Z,27424.00
2023-04-18T07:42:22.168Z,25248.00
2023-04-18T07:43:21.689Z,26624.00
2023-04-18T07:44:21.723Z,27072.00
2023-04-18T07:45:21.756Z,27424.00
2023-04-18T07:46:21.711Z,24608.00
2023-04-18T07:47:22.748Z,25728.00
2023-04-18T07:48:21.630Z,23904.00
2023-04-18T07:49:21.723Z,24160.00
2023-04-18T07:50:21.685Z,25664.00
2023-04-18T07:51:22.520Z,22112.00
2023-04-18T07:52:22.418Z,26240.00
2023-04-18T07:53:22.587Z,26720.00
2023-04-18T07:54:22.079Z,27712.00
2023-04-18T07:55:21.572Z,26624.00
2023-04-18T07:56:22.124Z,28928.00
2023-04-18T07:57:22.085Z,36160.00
2023-04-18T07:58:22.187Z,31424.00
2023-04-18T07:59:22.124Z,30464.00
2023-04-18T08:00:21.586Z,53216.00
2023-04-18T08:01:22.159Z,39104.00
2023-04-18T08:02:22.328Z,34592.00
2023-04-18T08:03:22.358Z,33504.00
2023-04-18T08:04:29.779Z,48544.00
2023-04-18T08:05:45.448Z,34624.00
2023-04-18T08:06:21.504Z,34400.00
2023-04-18T08:07:21.540Z,50464.00
2023-04-18T08:08:22.170Z,44544.00
2023-04-18T08:09:21.409Z,40064.00
2023-04-18T08:10:23.709Z,38656.00
2023-04-18T08:11:22.201Z,39872.00
2023-04-18T08:12:21.327Z,41248.00
2023-04-18T08:13:22.206Z,41088.00
2023-04-18T08:14:21.843Z,42176.00
2023-04-18T08:15:21.963Z,42272.00
2023-04-18T08:16:22.042Z,42624.00
2023-04-18T08:17:21.272Z,43520.00
2023-04-18T08:18:21.231Z,44992.00
2023-04-18T08:19:21.364Z,44448.00
2023-04-18T08:20:21.240Z,46208.00
2023-04-18T08:21:22.007Z,47264.00
2023-04-18T08:22:22.158Z,45344.00
2023-04-18T08:23:21.152Z,43456.00
2023-04-18T08:24:22.004Z,46528.00
2023-04-18T08:25:21.168Z,53856.00
2023-04-18T08:26:21.216Z,48864.00
2023-04-18T08:27:22.462Z,29888.00
2023-04-18T08:28:21.351Z,60576.00
2023-04-18T08:29:21.063Z,27488.00
2023-04-18T08:30:21.163Z,68000.00
2023-04-18T08:31:21.833Z,25568.00
2023-04-18T08:32:21.241Z,24512.00
2023-04-18T08:33:21.061Z,22016.00
2023-04-18T08:34:21.210Z,21216.00
2023-04-18T08:35:21.492Z,20480.00
2023-04-18T08:36:21.289Z,22752.00
2023-04-18T08:37:21.506Z,33216.00
2023-04-18T08:38:20.968Z,21600.00
2023-04-18T08:39:20.930Z,19808.00
2023-04-18T08:40:21.021Z,17408.00
2023-04-18T08:41:20.956Z,16388.00
2023-04-18T08:42:20.878Z,16268.00
2023-04-18T08:43:21.394Z,21568.00
2023-04-18T08:44:21.077Z,25504.00
2023-04-18T08:45:23.258Z,19008.00
2023-04-18T08:46:21.073Z,15904.00
2023-04-18T08:47:26.931Z,15808.00
2023-04-18T08:48:21.085Z,13820.00
2023-04-18T08:49:21.566Z,13380.00
2023-04-18T08:50:21.585Z,15220.00
2023-04-18T08:51:21.640Z,24416.00
2023-04-18T08:52:21.874Z,36256.00
2023-04-18T08:53:21.029Z,31232.00
2023-04-18T08:54:21.758Z,28928.00
2023-04-18T08:55:20.895Z,27552.00
2023-04-18T08:56:25.589Z,27904.00
2023-04-18T08:57:21.140Z,29632.00
2023-04-18T08:58:20.914Z,27136.00
2023-04-18T08:59:20.759Z,23712.00
2023-04-18T09:00:20.724Z,22080.00
2023-04-18T09:01:20.704Z,23968.00
2023-04-18T09:02:22.929Z,29440.00
2023-04-18T09:03:21.918Z,30208.00
2023-04-18T09:04:22.277Z,31744.00
2023-04-18T09:05:21.102Z,31328.00
2023-04-18T09:06:20.747Z,31680.00
2023-04-18T09:07:20.638Z,30368.00
2023-04-18T09:08:20.734Z,30560.00
2023-04-18T09:09:22.199Z,30912.00
2023-04-18T09:10:21.365Z,29760.00
2023-04-18T09:11:20.895Z,26560.00
2023-04-18T09:12:21.003Z,26432.00
2023-04-18T09:13:22.077Z,28608.00
2023-04-18T09:14:20.913Z,29088.00
2023-04-18T09:15:20.446Z,26656.00
2023-04-18T09:16:20.661Z,26496.00
2023-04-18T09:17:22.285Z,27424.00
2023-04-18T09:18:20.395Z,28576.00
2023-04-18T09:19:20.358Z,25696.00
2023-04-18T09:20:20.394Z,22720.00
2023-04-18T09:21:20.343Z,22816.00
2023-04-18T09:22:20.442Z,25728.00
2023-04-18T09:23:20.302Z,27104.00
2023-04-18T09:24:20.329Z,26432.00
2023-04-18T09:25:20.290Z,24448.00
2023-04-18T09:26:20.304Z,21920.00
2023-04-18T09:27:20.311Z,19808.00
2023-04-18T09:28:21.142Z,20192.00
2023-04-18T09:29:20.245Z,22688.00
2023-04-18T09:30:20.713Z,23936.00
2023-04-18T09:31:20.686Z,25056.00
2023-04-18T09:32:22.668Z,24896.00
2023-04-18T09:33:20.587Z,24224.00
2023-04-18T09:34:20.774Z,24288.00
2023-04-18T09:35:20.293Z,25088.00
2023-04-18T09:36:20.280Z,25184.00
2023-04-18T09:37:20.572Z,26816.00
2023-04-18T09:38:20.273Z,26464.00
2023-04-18T09:39:20.422Z,26240.00
2023-04-18T09:40:20.105Z,26304.00
2023-04-18T09:41:21.637Z,26496.00
2023-04-18T09:42:20.235Z,25216.00
2023-04-18T09:43:20.066Z,24288.00
2023-04-18T09:44:21.147Z,23904.00
2023-04-18T09:45:19.995Z,24672.00
2023-04-18T09:46:20.026Z,23424.00
2023-04-18T09:47:20.112Z,22496.00
2023-04-18T09:48:19.968Z,21152.00
2023-04-18T09:49:19.949Z,20640.00
2023-04-18T09:50:19.956Z,20960.00
2023-04-18T09:51:19.999Z,22432.00
2023-04-18T09:52:20.894Z,23456.00
2023-04-18T09:53:20.988Z,24768.00
2023-04-18T09:54:19.938Z,26048.00
2023-04-18T09:55:20.861Z,27136.00
2023-04-18T09:56:19.905Z,28000.00
2023-04-18T09:57:20.659Z,27872.00
2023-04-18T09:58:20.834Z,27488.00
2023-04-18T09:59:21.096Z,27104.00
2023-04-18T10:00:19.819Z,26688.00
2023-04-18T10:01:20.807Z,25504.00
2023-04-18T10:02:20.852Z,24544.00
2023-04-18T10:03:19.982Z,25344.00
2023-04-18T10:04:20.579Z,27520.00
2023-04-18T10:05:21.188Z,27712.00
2023-04-18T10:06:19.909Z,26400.00
2023-04-18T10:07:20.318Z,25696.00
2023-04-18T10:08:20.019Z,26688.00
2023-04-18T10:09:19.729Z,28256.00
2023-04-18T10:10:20.104Z,27840.00
2023-04-18T10:11:20.354Z,25664.00
2023-04-18T10:12:19.719Z,24960.00
2023-04-18T10:13:19.815Z,24512.00
2023-04-18T10:14:20.067Z,24000.00
2023-04-18T10:15:19.670Z,22944.00
2023-04-18T10:16:19.741Z,23072.00
2023-04-18T10:17:19.683Z,24768.00
2023-04-18T10:18:19.673Z,26272.00
2023-04-18T10:19:20.189Z,27040.00
2023-04-18T10:20:19.943Z,26016.00
2023-04-18T10:21:19.483Z,25408.00
2023-04-18T10:22:19.580Z,25856.00
2023-04-18T10:23:19.643Z,26784.00
2023-04-18T10:24:20.425Z,26176.00
2023-04-18T10:25:19.528Z,25248.00
2023-04-18T10:26:19.530Z,25344.00
2023-04-18T10:27:19.464Z,26272.00
2023-04-18T10:28:20.131Z,26656.00
2023-04-18T10:29:19.487Z,26368.00
2023-04-18T10:30:20.280Z,24576.00
2023-04-18T10:31:19.403Z,22272.00
2023-04-18T10:32:20.010Z,21760.00
2023-04-18T10:33:28.722Z,21152.00
2023-04-18T10:34:20.561Z,22592.00
2023-04-18T10:35:20.343Z,24352.00
2023-04-18T10:36:20.255Z,24960.00
2023-04-18T10:37:19.319Z,26144.00
2023-04-18T10:38:19.327Z,27616.00
2023-04-18T10:39:19.265Z,29216.00
2023-04-18T10:40:19.278Z,29504.00
2023-04-18T10:41:20.026Z,28896.00
2023-04-18T10:42:19.274Z,28928.00
2023-04-18T10:43:19.268Z,29248.00
2023-04-18T10:44:19.193Z,28480.00
2023-04-18T10:45:19.224Z,27808.00
2023-04-18T10:46:31.168Z,28320.00
2023-04-18T10:47:20.251Z,29056.00
2023-04-18T10:48:19.220Z,28192.00
2023-04-18T10:49:19.139Z,26880.00
2023-04-18T10:50:19.168Z,25952.00
2023-04-18T10:51:19.157Z,24352.00
2023-04-18T10:52:19.237Z,24256.00
2023-04-18T10:53:19.093Z,26784.00
2023-04-18T10:54:19.154Z,28512.00
2023-04-18T10:55:19.212Z,30208.00
2023-04-18T10:56:18.988Z,30432.00
2023-04-18T10:57:19.072Z,28896.00
2023-04-18T10:58:19.048Z,29344.00
2023-04-18T10:59:19.051Z,28928.00
2023-04-18T11:00:18.990Z,27936.00
2023-04-18T11:01:19.034Z,28288.00
2023-04-18T11:02:18.958Z,29344.00
2023-04-18T11:03:19.121Z,29504.00
2023-04-18T11:04:19.513Z,30080.00
2023-04-18T11:05:18.884Z,30432.00
2023-04-18T11:06:19.745Z,30656.00
2023-04-18T11:07:18.870Z,29440.00
2023-04-18T11:08:18.819Z,29792.00
2023-04-18T11:09:18.897Z,30048.00
2023-04-18T11:10:19.894Z,30592.00
2023-04-18T11:11:18.782Z,30912.00
2023-04-18T11:12:19.209Z,31712.00
2023-04-18T11:13:18.791Z,33120.00
2023-04-18T11:14:18.805Z,35328.00
2023-04-18T11:15:18.788Z,36864.00
2023-04-18T11:16:18.814Z,37728.00
2023-04-18T11:17:18.725Z,38752.00
2023-04-18T11:18:18.674Z,41184.00
2023-04-18T11:19:18.678Z,40544.00
2023-04-18T11:20:18.724Z,38848.00
2023-04-18T11:21:18.709Z,39104.00
2023-04-18T11:22:18.728Z,38080.00
2023-04-18T11:23:19.071Z,36928.00
2023-04-18T11:24:19.021Z,35744.00
2023-04-18T11:25:19.108Z,35328.00
2023-04-18T11:26:19.555Z,34560.00
2023-04-18T11:27:18.590Z,33440.00
2023-04-18T11:28:19.351Z,32224.00
2023-04-18T11:29:18.589Z,29248.00
2023-04-18T11:30:19.282Z,27008.00
2023-04-18T11:31:18.640Z,27232.00
2023-04-18T11:32:18.589Z,29088.00
2023-04-18T11:33:19.324Z,29728.00
2023-04-18T11:34:19.226Z,28448.00
2023-04-18T11:35:19.179Z,27712.00
2023-04-18T11:36:19.248Z,28480.00
2023-04-18T11:37:19.224Z,27872.00
2023-04-18T11:38:19.289Z,27040.00
2023-04-18T11:39:19.269Z,26016.00
2023-04-18T11:40:19.237Z,25120.00
2023-04-18T11:41:19.233Z,26048.00
2023-04-18T11:42:19.249Z,29760.00
2023-04-18T11:43:19.365Z,32352.00
2023-04-18T11:44:19.127Z,36096.00
2023-04-18T11:45:19.285Z,41088.00
2023-04-18T11:46:18.372Z,43136.00
2023-04-18T11:47:18.318Z,44768.00
2023-04-18T11:48:18.271Z,43808.00
2023-04-18T11:49:19.202Z,44000.00
2023-04-18T11:50:19.038Z,45088.00
2023-04-18T11:51:18.247Z,43456.00
2023-04-18T11:52:18.354Z,45376.00
2023-04-18T11:53:19.049Z,49536.00
2023-04-18T11:54:18.304Z,46560.00
2023-04-18T11:55:19.078Z,50464.00
2023-04-18T11:56:18.250Z,73888.00
2023-04-18T11:57:19.121Z,64288.00
2023-04-18T11:58:18.160Z,57504.00
2023-04-18T11:59:18.931Z,102112.00
2023-04-18T12:00:19.175Z,91744.00
2023-04-18T12:01:19.022Z,79424.00
2023-04-18T12:02:18.204Z,88032.00
2023-04-18T12:03:18.328Z,62848.00
2023-04-18T12:04:18.352Z,67648.00
2023-04-18T12:05:18.428Z,41472.00
2023-04-18T12:06:18.023Z,48352.00
2023-04-18T12:07:18.207Z,67328.00
2023-04-18T12:08:18.018Z,51552.00
2023-04-18T12:09:18.000Z,56064.00
2023-04-18T12:10:17.962Z,67008.00
2023-04-18T12:11:18.028Z,75040.00
2023-04-18T12:12:17.983Z,61344.00
2023-04-18T12:13:17.985Z,55872.00
2023-04-18T12:14:17.918Z,50912.00
2023-04-18T12:15:18.219Z,47360.00
2023-04-18T12:16:17.991Z,53728.00
2023-04-18T12:17:18.225Z,40832.00